sensor_id;sensor_type;location;lat;lon;timestamp;temperature;humidity
13892;DHT22;7016;48.172;8.058;2023-07-31T00:02:14;15.00;99.90
13892;DHT22;7016;48.172;8.058;2023-07-31T00:04:40;15.00;99.90
13892;DHT22;7016;48.172;8.058;2023-07-31T00:07:06;15.00;99.90
13892;DHT22;7016;48.172;8.058;2023-07-31T00:09:33;15.00;99.90
13892;DHT22;7016;48.172;8.058;2023-07-31T00:11:59;15.00;99.90
13892;DHT22;7016;48.172;8.058;2023-07-31T00:14:25;15.00;99.90
13892;DHT22;7016;48.172;8.058;2023-07-31T00:16:50;15.00;99.90
13892;DHT22;7016;48.172;8.058;2023-07-31T00:19:16;14.90;99.90
13892;DHT22;7016;48.172;8.058;2023-07-31T00:21:41;14.70;99.90
13892;DHT22;7016;48.172;8.058;2023-07-31T00:24:07;14.70;99.90
13892;DHT22;7016;48.172;8.058;2023-07-31T00:26:33;14.60;99.90
13892;DHT22;7016;48.172;8.058;2023-07-31T00:28:58;14.60;99.90
13892;DHT22;7016;48.172;8.058;2023-07-31T00:31:24;14.60;99.90
13892;DHT22;7016;48.172;8.058;2023-07-31T00:33:50;14.60;99.90
13892;DHT22;7016;48.172;8.058;2023-07-31T00:36:15;14.70;99.90
13892;DHT22;7016;48.172;8.058;2023-07-31T00:38:43;14.80;99.90
13892;DHT22;7016;48.172;8.058;2023-07-31T00:41:09;14.80;99.90
13892;DHT22;7016;48.172;8.058;2023-07-31T00:43:35;14.80;99.90
13892;DHT22;7016;48.172;8.058;2023-07-31T00:46:01;14.90;99.90
13892;DHT22;7016;48.172;8.058;2023-07-31T00:48:26;14.90;99.90
13892;DHT22;7016;48.172;8.058;2023-07-31T00:50:52;14.80;99.90
13892;DHT22;7016;48.172;8.058;2023-07-31T00:53:18;14.80;99.90
13892;DHT22;7016;48.172;8.058;2023-07-31T00:55:44;14.80;99.90
13892;DHT22;7016;48.172;8.058;2023-07-31T00:58:10;14.80;99.90
13892;DHT22;7016;48.172;8.058;2023-07-31T01:00:36;14.70;99.90
13892;DHT22;7016;48.172;8.058;2023-07-31T01:03:01;14.70;99.90
13892;DHT22;7016;48.172;8.058;2023-07-31T01:11:09;14.50;99.90
13892;DHT22;7016;48.172;8.058;2023-07-31T01:13:39;14.50;99.90
13892;DHT22;7016;48.172;8.058;2023-07-31T01:16:04;14.60;99.90
13892;DHT22;7016;48.172;8.058;2023-07-31T01:18:30;14.50;99.90
13892;DHT22;7016;48.172;8.058;2023-07-31T01:21:07;14.40;99.90
13892;DHT22;7016;48.172;8.058;2023-07-31T01:26:46;14.50;99.90
13892;DHT22;7016;48.172;8.058;2023-07-31T01:30:15;14.50;99.90
13892;DHT22;7016;48.172;8.058;2023-07-31T01:32:21;14.40;99.90
13892;DHT22;7016;48.172;8.058;2023-07-31T01:34:48;14.30;99.90
13892;DHT22;7016;48.172;8.058;2023-07-31T01:37:14;14.20;99.90
13892;DHT22;7016;48.172;8.058;2023-07-31T01:39:40;14.30;99.90
13892;DHT22;7016;48.172;8.058;2023-07-31T01:42:05;14.20;99.90
13892;DHT22;7016;48.172;8.058;2023-07-31T01:44:33;14.20;99.90
13892;DHT22;7016;48.172;8.058;2023-07-31T01:46:58;14.30;99.90
13892;DHT22;7016;48.172;8.058;2023-07-31T01:49:25;14.20;99.90
13892;DHT22;7016;48.172;8.058;2023-07-31T01:51:51;14.20;99.90
13892;DHT22;7016;48.172;8.058;2023-07-31T01:54:17;14.10;99.90
13892;DHT22;7016;48.172;8.058;2023-07-31T01:56:42;14.20;99.90
13892;DHT22;7016;48.172;8.058;2023-07-31T01:59:08;14.20;99.90
13892;DHT22;7016;48.172;8.058;2023-07-31T02:01:34;14.20;99.90
13892;DHT22;7016;48.172;8.058;2023-07-31T02:04:00;14.10;99.90
13892;DHT22;7016;48.172;8.058;2023-07-31T02:06:25;14.10;99.90
13892;DHT22;7016;48.172;8.058;2023-07-31T02:08:51;14.20;99.90
13892;DHT22;7016;48.172;8.058;2023-07-31T02:11:17;14.10;99.90
13892;DHT22;7016;48.172;8.058;2023-07-31T02:13:42;14.00;99.90
13892;DHT22;7016;48.172;8.058;2023-07-31T02:16:08;13.90;99.90
13892;DHT22;7016;48.172;8.058;2023-07-31T02:18:34;13.90;99.90
13892;DHT22;7016;48.172;8.058;2023-07-31T02:20:59;13.90;99.90
13892;DHT22;7016;48.172;8.058;2023-07-31T02:23:25;13.90;99.90
13892;DHT22;7016;48.172;8.058;2023-07-31T02:25:51;14.00;99.90
13892;DHT22;7016;48.172;8.058;2023-07-31T02:28:16;13.90;99.90
13892;DHT22;7016;48.172;8.058;2023-07-31T02:30:44;14.00;99.90
13892;DHT22;7016;48.172;8.058;2023-07-31T02:33:11;13.90;99.90
13892;DHT22;7016;48.172;8.058;2023-07-31T02:35:37;14.00;99.90
13892;DHT22;7016;48.172;8.058;2023-07-31T02:38:02;14.00;99.90
13892;DHT22;7016;48.172;8.058;2023-07-31T02:42:54;13.90;99.90
13892;DHT22;7016;48.172;8.058;2023-07-31T02:45:20;13.80;99.90
13892;DHT22;7016;48.172;8.058;2023-07-31T02:47:45;13.70;99.90
13892;DHT22;7016;48.172;8.058;2023-07-31T02:50:11;13.80;99.90
13892;DHT22;7016;48.172;8.058;2023-07-31T02:52:37;13.70;99.90
13892;DHT22;7016;48.172;8.058;2023-07-31T02:55:03;13.60;99.90
13892;DHT22;7016;48.172;8.058;2023-07-31T02:57:28;13.70;99.90
13892;DHT22;7016;48.172;8.058;2023-07-31T02:59:54;13.70;99.90
13892;DHT22;7016;48.172;8.058;2023-07-31T03:02:20;13.70;99.90
13892;DHT22;7016;48.172;8.058;2023-07-31T03:04:45;13.70;99.90
13892;DHT22;7016;48.172;8.058;2023-07-31T03:07:11;13.60;99.90
13892;DHT22;7016;48.172;8.058;2023-07-31T03:09:37;13.60;99.90
13892;DHT22;7016;48.172;8.058;2023-07-31T03:12:03;13.50;99.90
13892;DHT22;7016;48.172;8.058;2023-07-31T03:14:28;13.50;99.90
13892;DHT22;7016;48.172;8.058;2023-07-31T03:16:54;13.60;99.90
13892;DHT22;7016;48.172;8.058;2023-07-31T03:19:20;13.50;99.90
13892;DHT22;7016;48.172;8.058;2023-07-31T03:21:46;13.50;99.90
13892;DHT22;7016;48.172;8.058;2023-07-31T03:24:11;13.50;99.90
13892;DHT22;7016;48.172;8.058;2023-07-31T03:26:37;13.50;99.90
13892;DHT22;7016;48.172;8.058;2023-07-31T03:29:03;13.50;99.90
13892;DHT22;7016;48.172;8.058;2023-07-31T03:31:29;13.60;99.90
13892;DHT22;7016;48.172;8.058;2023-07-31T03:33:55;13.50;99.90
13892;DHT22;7016;48.172;8.058;2023-07-31T03:36:21;13.60;99.90
13892;DHT22;7016;48.172;8.058;2023-07-31T03:38:46;13.60;99.90
13892;DHT22;7016;48.172;8.058;2023-07-31T03:41:12;13.50;99.90
13892;DHT22;7016;48.172;8.058;2023-07-31T03:43:38;13.50;99.90
13892;DHT22;7016;48.172;8.058;2023-07-31T03:46:03;13.60;99.90
13892;DHT22;7016;48.172;8.058;2023-07-31T03:48:29;13.60;99.90
13892;DHT22;7016;48.172;8.058;2023-07-31T03:50:55;13.60;99.90
13892;DHT22;7016;48.172;8.058;2023-07-31T03:53:21;13.60;99.90
13892;DHT22;7016;48.172;8.058;2023-07-31T03:55:47;13.50;99.90
13892;DHT22;7016;48.172;8.058;2023-07-31T03:58:12;13.50;99.90
13892;DHT22;7016;48.172;8.058;2023-07-31T04:00:39;13.50;99.90
13892;DHT22;7016;48.172;8.058;2023-07-31T04:03:05;13.50;99.90
13892;DHT22;7016;48.172;8.058;2023-07-31T04:05:32;13.60;99.90
13892;DHT22;7016;48.172;8.058;2023-07-31T04:07:58;13.60;99.90
13892;DHT22;7016;48.172;8.058;2023-07-31T04:10:24;13.60;99.90
13892;DHT22;7016;48.172;8.058;2023-07-31T04:12:49;13.50;99.90
13892;DHT22;7016;48.172;8.058;2023-07-31T04:15:18;13.60;99.90
13892;DHT22;7016;48.172;8.058;2023-07-31T04:17:44;13.60;99.90
13892;DHT22;7016;48.172;8.058;2023-07-31T04:20:10;13.60;99.90
13892;DHT22;7016;48.172;8.058;2023-07-31T04:22:36;13.50;99.90
13892;DHT22;7016;48.172;8.058;2023-07-31T04:25:01;13.60;99.90
13892;DHT22;7016;48.172;8.058;2023-07-31T04:27:27;13.50;99.90
13892;DHT22;7016;48.172;8.058;2023-07-31T04:29:52;13.50;99.90
13892;DHT22;7016;48.172;8.058;2023-07-31T04:32:18;13.50;99.90
13892;DHT22;7016;48.172;8.058;2023-07-31T04:34:45;13.60;99.90
13892;DHT22;7016;48.172;8.058;2023-07-31T04:37:11;13.60;99.90
13892;DHT22;7016;48.172;8.058;2023-07-31T04:39:36;13.60;99.90
13892;DHT22;7016;48.172;8.058;2023-07-31T04:42:02;13.70;99.90
13892;DHT22;7016;48.172;8.058;2023-07-31T04:44:28;13.70;99.90
13892;DHT22;7016;48.172;8.058;2023-07-31T04:46:54;13.70;99.90
13892;DHT22;7016;48.172;8.058;2023-07-31T04:49:19;13.60;99.90
13892;DHT22;7016;48.172;8.058;2023-07-31T04:51:45;13.60;99.90
13892;DHT22;7016;48.172;8.058;2023-07-31T04:54:11;13.70;99.90
13892;DHT22;7016;48.172;8.058;2023-07-31T04:56:38;13.70;99.90
13892;DHT22;7016;48.172;8.058;2023-07-31T04:59:03;13.70;99.90
13892;DHT22;7016;48.172;8.058;2023-07-31T05:01:29;13.80;99.90
13892;DHT22;7016;48.172;8.058;2023-07-31T05:03:55;13.70;99.90
13892;DHT22;7016;48.172;8.058;2023-07-31T05:06:20;13.80;99.90
13892;DHT22;7016;48.172;8.058;2023-07-31T05:08:46;13.80;99.90
13892;DHT22;7016;48.172;8.058;2023-07-31T05:11:12;13.90;99.90
13892;DHT22;7016;48.172;8.058;2023-07-31T05:13:37;13.80;99.90
13892;DHT22;7016;48.172;8.058;2023-07-31T05:16:03;13.90;99.90
13892;DHT22;7016;48.172;8.058;2023-07-31T05:18:29;14.00;99.90
13892;DHT22;7016;48.172;8.058;2023-07-31T05:20:55;14.00;99.90
13892;DHT22;7016;48.172;8.058;2023-07-31T05:23:21;14.00;99.90
13892;DHT22;7016;48.172;8.058;2023-07-31T05:25:46;14.00;99.90
13892;DHT22;7016;48.172;8.058;2023-07-31T05:28:12;14.00;99.90
13892;DHT22;7016;48.172;8.058;2023-07-31T05:30:38;14.00;99.90
13892;DHT22;7016;48.172;8.058;2023-07-31T05:33:04;14.00;99.90
13892;DHT22;7016;48.172;8.058;2023-07-31T05:35:32;14.10;99.90
13892;DHT22;7016;48.172;8.058;2023-07-31T05:37:58;14.10;99.90
13892;DHT22;7016;48.172;8.058;2023-07-31T05:40:23;14.20;99.90
13892;DHT22;7016;48.172;8.058;2023-07-31T05:42:49;14.20;99.90
13892;DHT22;7016;48.172;8.058;2023-07-31T05:45:15;14.20;99.90
13892;DHT22;7016;48.172;8.058;2023-07-31T05:47:40;14.30;99.90
13892;DHT22;7016;48.172;8.058;2023-07-31T05:50:06;14.30;99.90
13892;DHT22;7016;48.172;8.058;2023-07-31T05:52:32;14.20;99.90
13892;DHT22;7016;48.172;8.058;2023-07-31T05:54:58;14.20;99.90
13892;DHT22;7016;48.172;8.058;2023-07-31T05:57:23;14.30;99.90
13892;DHT22;7016;48.172;8.058;2023-07-31T05:59:49;14.30;99.90
13892;DHT22;7016;48.172;8.058;2023-07-31T06:02:15;14.40;99.90
13892;DHT22;7016;48.172;8.058;2023-07-31T06:04:40;14.40;99.90
13892;DHT22;7016;48.172;8.058;2023-07-31T06:07:06;14.40;99.90
13892;DHT22;7016;48.172;8.058;2023-07-31T06:09:32;14.40;99.90
13892;DHT22;7016;48.172;8.058;2023-07-31T06:11:58;14.50;99.90
13892;DHT22;7016;48.172;8.058;2023-07-31T06:14:24;14.60;99.90
13892;DHT22;7016;48.172;8.058;2023-07-31T06:16:49;14.70;99.90
13892;DHT22;7016;48.172;8.058;2023-07-31T06:19:15;14.80;99.90
13892;DHT22;7016;48.172;8.058;2023-07-31T06:21:41;14.90;99.90
13892;DHT22;7016;48.172;8.058;2023-07-31T06:24:08;14.90;99.90
13892;DHT22;7016;48.172;8.058;2023-07-31T06:26:34;15.00;99.90
13892;DHT22;7016;48.172;8.058;2023-07-31T06:29:00;15.10;99.90
13892;DHT22;7016;48.172;8.058;2023-07-31T06:31:26;15.20;99.90
13892;DHT22;7016;48.172;8.058;2023-07-31T06:33:52;15.20;99.90
13892;DHT22;7016;48.172;8.058;2023-07-31T06:36:18;15.30;99.90
13892;DHT22;7016;48.172;8.058;2023-07-31T06:38:44;15.40;99.90
13892;DHT22;7016;48.172;8.058;2023-07-31T06:41:09;15.40;99.90
13892;DHT22;7016;48.172;8.058;2023-07-31T06:43:36;15.40;99.90
13892;DHT22;7016;48.172;8.058;2023-07-31T06:46:06;15.50;99.90
13892;DHT22;7016;48.172;8.058;2023-07-31T06:48:35;15.50;99.90
13892;DHT22;7016;48.172;8.058;2023-07-31T06:51:03;15.50;99.90
13892;DHT22;7016;48.172;8.058;2023-07-31T06:53:28;15.50;99.90
13892;DHT22;7016;48.172;8.058;2023-07-31T06:55:54;15.60;99.90
13892;DHT22;7016;48.172;8.058;2023-07-31T06:58:20;15.70;99.90
13892;DHT22;7016;48.172;8.058;2023-07-31T07:00:46;15.80;99.90
13892;DHT22;7016;48.172;8.058;2023-07-31T07:03:12;15.80;99.90
13892;DHT22;7016;48.172;8.058;2023-07-31T07:05:40;15.90;99.90
13892;DHT22;7016;48.172;8.058;2023-07-31T07:08:06;15.90;99.90
13892;DHT22;7016;48.172;8.058;2023-07-31T07:10:32;16.00;99.90
13892;DHT22;7016;48.172;8.058;2023-07-31T07:12:57;16.00;99.90
13892;DHT22;7016;48.172;8.058;2023-07-31T07:15:23;16.10;99.90
13892;DHT22;7016;48.172;8.058;2023-07-31T07:17:49;16.20;99.90
13892;DHT22;7016;48.172;8.058;2023-07-31T07:20:14;16.20;99.90
13892;DHT22;7016;48.172;8.058;2023-07-31T07:22:40;16.20;99.90
13892;DHT22;7016;48.172;8.058;2023-07-31T07:25:08;16.20;99.90
13892;DHT22;7016;48.172;8.058;2023-07-31T07:27:34;16.20;99.90
13892;DHT22;7016;48.172;8.058;2023-07-31T07:30:00;16.30;99.90
13892;DHT22;7016;48.172;8.058;2023-07-31T07:32:26;16.30;99.90
13892;DHT22;7016;48.172;8.058;2023-07-31T07:34:52;16.50;99.90
13892;DHT22;7016;48.172;8.058;2023-07-31T07:37:17;16.70;99.90
13892;DHT22;7016;48.172;8.058;2023-07-31T07:39:44;16.90;99.90
13892;DHT22;7016;48.172;8.058;2023-07-31T07:42:10;17.10;99.90
13892;DHT22;7016;48.172;8.058;2023-07-31T07:44:35;17.20;99.90
13892;DHT22;7016;48.172;8.058;2023-07-31T07:47:01;17.20;99.90
13892;DHT22;7016;48.172;8.058;2023-07-31T07:49:27;17.40;99.90
13892;DHT22;7016;48.172;8.058;2023-07-31T07:51:52;17.70;99.90
13892;DHT22;7016;48.172;8.058;2023-07-31T07:54:18;17.80;99.90
13892;DHT22;7016;48.172;8.058;2023-07-31T07:56:45;17.90;99.90
13892;DHT22;7016;48.172;8.058;2023-07-31T07:59:11;18.00;99.90
13892;DHT22;7016;48.172;8.058;2023-07-31T08:01:36;18.00;99.90
13892;DHT22;7016;48.172;8.058;2023-07-31T08:04:02;18.00;99.90
13892;DHT22;7016;48.172;8.058;2023-07-31T08:06:28;17.90;99.90
13892;DHT22;7016;48.172;8.058;2023-07-31T08:08:55;17.90;99.90
13892;DHT22;7016;48.172;8.058;2023-07-31T08:11:20;18.10;99.90
13892;DHT22;7016;48.172;8.058;2023-07-31T08:13:49;18.20;99.90
13892;DHT22;7016;48.172;8.058;2023-07-31T08:16:15;18.40;99.90
13892;DHT22;7016;48.172;8.058;2023-07-31T08:18:40;18.60;99.90
13892;DHT22;7016;48.172;8.058;2023-07-31T08:21:08;18.90;99.90
13892;DHT22;7016;48.172;8.058;2023-07-31T08:23:33;18.90;99.90
13892;DHT22;7016;48.172;8.058;2023-07-31T08:25:59;18.90;99.90
13892;DHT22;7016;48.172;8.058;2023-07-31T08:28:25;19.00;99.90
13892;DHT22;7016;48.172;8.058;2023-07-31T08:30:51;19.10;99.90
13892;DHT22;7016;48.172;8.058;2023-07-31T08:33:16;19.10;99.90
13892;DHT22;7016;48.172;8.058;2023-07-31T08:35:42;19.20;99.90
13892;DHT22;7016;48.172;8.058;2023-07-31T08:38:08;19.40;99.90
13892;DHT22;7016;48.172;8.058;2023-07-31T08:40:36;19.60;99.90
13892;DHT22;7016;48.172;8.058;2023-07-31T08:43:03;19.50;99.90
13892;DHT22;7016;48.172;8.058;2023-07-31T08:45:30;19.60;99.90
13892;DHT22;7016;48.172;8.058;2023-07-31T08:47:56;19.60;99.90
13892;DHT22;7016;48.172;8.058;2023-07-31T08:50:25;21.30;99.90
13892;DHT22;7016;48.172;8.058;2023-07-31T08:52:52;19.40;99.90
13892;DHT22;7016;48.172;8.058;2023-07-31T08:55:18;19.40;99.90
13892;DHT22;7016;48.172;8.058;2023-07-31T08:57:51;19.40;99.90
13892;DHT22;7016;48.172;8.058;2023-07-31T09:00:18;19.40;99.90
13892;DHT22;7016;48.172;8.058;2023-07-31T09:03:08;19.40;99.90
13892;DHT22;7016;48.172;8.058;2023-07-31T09:05:36;19.40;99.90
13892;DHT22;7016;48.172;8.058;2023-07-31T09:08:02;19.30;99.90
13892;DHT22;7016;48.172;8.058;2023-07-31T09:10:29;19.40;99.90
13892;DHT22;7016;48.172;8.058;2023-07-31T09:12:55;19.30;99.90
13892;DHT22;7016;48.172;8.058;2023-07-31T09:15:21;19.40;99.90
13892;DHT22;7016;48.172;8.058;2023-07-31T09:17:59;19.40;99.90
13892;DHT22;7016;48.172;8.058;2023-07-31T09:20:28;19.50;99.90
13892;DHT22;7016;48.172;8.058;2023-07-31T09:22:55;19.40;99.90
13892;DHT22;7016;48.172;8.058;2023-07-31T09:25:27;19.50;99.90
13892;DHT22;7016;48.172;8.058;2023-07-31T09:28:00;19.50;99.90
13892;DHT22;7016;48.172;8.058;2023-07-31T09:30:26;19.50;99.90
13892;DHT22;7016;48.172;8.058;2023-07-31T09:33:03;19.40;99.90
13892;DHT22;7016;48.172;8.058;2023-07-31T09:35:33;19.50;99.90
13892;DHT22;7016;48.172;8.058;2023-07-31T09:38:25;19.80;99.90
13892;DHT22;7016;48.172;8.058;2023-07-31T09:40:51;20.10;99.90
13892;DHT22;7016;48.172;8.058;2023-07-31T09:43:21;20.00;99.90
13892;DHT22;7016;48.172;8.058;2023-07-31T09:45:47;20.10;99.90
13892;DHT22;7016;48.172;8.058;2023-07-31T09:48:16;20.20;99.90
13892;DHT22;7016;48.172;8.058;2023-07-31T09:50:46;20.40;99.90
13892;DHT22;7016;48.172;8.058;2023-07-31T09:53:13;20.40;99.90
13892;DHT22;7016;48.172;8.058;2023-07-31T09:55:40;20.50;99.90
13892;DHT22;7016;48.172;8.058;2023-07-31T09:58:08;20.60;99.90
13892;DHT22;7016;48.172;8.058;2023-07-31T10:00:35;20.90;99.90
13892;DHT22;7016;48.172;8.058;2023-07-31T10:03:04;20.90;99.90
13892;DHT22;7016;48.172;8.058;2023-07-31T10:05:46;20.90;99.90
13892;DHT22;7016;48.172;8.058;2023-07-31T10:08:15;20.90;99.90
13892;DHT22;7016;48.172;8.058;2023-07-31T10:10:43;21.10;99.90
13892;DHT22;7016;48.172;8.058;2023-07-31T10:13:09;21.10;99.90
13892;DHT22;7016;48.172;8.058;2023-07-31T10:15:36;21.10;99.90
13892;DHT22;7016;48.172;8.058;2023-07-31T10:18:01;20.90;99.90
13892;DHT22;7016;48.172;8.058;2023-07-31T10:20:28;20.90;99.90
13892;DHT22;7016;48.172;8.058;2023-07-31T10:22:57;21.10;99.90
13892;DHT22;7016;48.172;8.058;2023-07-31T10:25:26;21.20;99.90
13892;DHT22;7016;48.172;8.058;2023-07-31T10:27:53;21.10;99.90
13892;DHT22;7016;48.172;8.058;2023-07-31T10:30:23;21.20;99.90
13892;DHT22;7016;48.172;8.058;2023-07-31T10:32:51;21.10;99.90
13892;DHT22;7016;48.172;8.058;2023-07-31T10:35:18;21.20;99.90
13892;DHT22;7016;48.172;8.058;2023-07-31T10:37:44;21.20;99.90
13892;DHT22;7016;48.172;8.058;2023-07-31T10:42:52;21.10;99.90
13892;DHT22;7016;48.172;8.058;2023-07-31T10:50:30;20.90;99.90
13892;DHT22;7016;48.172;8.058;2023-07-31T10:52:59;21.00;99.90
13892;DHT22;7016;48.172;8.058;2023-07-31T10:58:08;21.20;99.90
13892;DHT22;7016;48.172;8.058;2023-07-31T11:00:37;21.20;99.90
13892;DHT22;7016;48.172;8.058;2023-07-31T11:05:59;21.20;99.90
13892;DHT22;7016;48.172;8.058;2023-07-31T11:08:30;21.20;99.90
13892;DHT22;7016;48.172;8.058;2023-07-31T11:13:29;21.80;99.90
13892;DHT22;7016;48.172;8.058;2023-07-31T11:15:54;21.90;99.90
13892;DHT22;7016;48.172;8.058;2023-07-31T11:18:20;21.80;99.90
13892;DHT22;7016;48.172;8.058;2023-07-31T11:20:46;21.50;99.90
13892;DHT22;7016;48.172;8.058;2023-07-31T11:23:11;21.50;99.90
13892;DHT22;7016;48.172;8.058;2023-07-31T11:25:39;21.40;99.90
13892;DHT22;7016;48.172;8.058;2023-07-31T11:28:12;21.30;99.90
13892;DHT22;7016;48.172;8.058;2023-07-31T11:30:39;21.30;99.90
13892;DHT22;7016;48.172;8.058;2023-07-31T11:33:07;21.30;99.90
13892;DHT22;7016;48.172;8.058;2023-07-31T11:35:34;21.20;99.90
13892;DHT22;7016;48.172;8.058;2023-07-31T11:38:01;21.20;99.90
13892;DHT22;7016;48.172;8.058;2023-07-31T11:40:27;21.20;99.90
13892;DHT22;7016;48.172;8.058;2023-07-31T11:42:57;21.20;99.90
13892;DHT22;7016;48.172;8.058;2023-07-31T11:45:25;21.20;99.90
13892;DHT22;7016;48.172;8.058;2023-07-31T11:47:51;21.20;99.90
13892;DHT22;7016;48.172;8.058;2023-07-31T11:50:16;21.20;99.90
13892;DHT22;7016;48.172;8.058;2023-07-31T11:52:44;21.20;99.90
13892;DHT22;7016;48.172;8.058;2023-07-31T11:55:12;21.30;99.90
13892;DHT22;7016;48.172;8.058;2023-07-31T11:57:39;21.30;99.90
13892;DHT22;7016;48.172;8.058;2023-07-31T12:00:08;21.30;99.90
13892;DHT22;7016;48.172;8.058;2023-07-31T12:02:36;21.30;99.90
13892;DHT22;7016;48.172;8.058;2023-07-31T12:05:03;21.20;99.90
13892;DHT22;7016;48.172;8.058;2023-07-31T12:10:21;21.30;99.90
13892;DHT22;7016;48.172;8.058;2023-07-31T12:12:59;21.20;99.90
13892;DHT22;7016;48.172;8.058;2023-07-31T12:15:35;21.20;99.90
13892;DHT22;7016;48.172;8.058;2023-07-31T12:18:06;21.20;99.90
13892;DHT22;7016;48.172;8.058;2023-07-31T12:20:32;21.40;99.90
13892;DHT22;7016;48.172;8.058;2023-07-31T12:22:58;21.40;99.90
13892;DHT22;7016;48.172;8.058;2023-07-31T12:25:29;21.50;99.90
13892;DHT22;7016;48.172;8.058;2023-07-31T12:27:55;21.60;99.90
13892;DHT22;7016;48.172;8.058;2023-07-31T12:30:28;21.60;99.90
13892;DHT22;7016;48.172;8.058;2023-07-31T12:32:54;21.50;99.90
13892;DHT22;7016;48.172;8.058;2023-07-31T12:35:20;21.60;99.90
13892;DHT22;7016;48.172;8.058;2023-07-31T12:37:45;21.70;99.90
13892;DHT22;7016;48.172;8.058;2023-07-31T12:40:11;21.70;99.90
13892;DHT22;7016;48.172;8.058;2023-07-31T12:42:38;21.90;99.90
13892;DHT22;7016;48.172;8.058;2023-07-31T12:45:04;22.00;99.90
13892;DHT22;7016;48.172;8.058;2023-07-31T12:47:30;22.10;99.90
13892;DHT22;7016;48.172;8.058;2023-07-31T12:49:55;22.20;99.90
13892;DHT22;7016;48.172;8.058;2023-07-31T12:52:21;22.30;99.90
13892;DHT22;7016;48.172;8.058;2023-07-31T12:54:47;22.30;99.90
13892;DHT22;7016;48.172;8.058;2023-07-31T12:57:12;22.10;99.90
13892;DHT22;7016;48.172;8.058;2023-07-31T12:59:38;22.20;99.90
13892;DHT22;7016;48.172;8.058;2023-07-31T13:02:04;22.20;99.90
13892;DHT22;7016;48.172;8.058;2023-07-31T13:04:30;22.30;99.90
13892;DHT22;7016;48.172;8.058;2023-07-31T13:06:56;22.40;99.90
13892;DHT22;7016;48.172;8.058;2023-07-31T13:09:21;22.60;99.90
13892;DHT22;7016;48.172;8.058;2023-07-31T13:11:47;22.70;99.90
13892;DHT22;7016;48.172;8.058;2023-07-31T13:14:13;22.70;99.90
13892;DHT22;7016;48.172;8.058;2023-07-31T13:16:38;22.70;99.90
13892;DHT22;7016;48.172;8.058;2023-07-31T13:19:04;22.90;99.90
13892;DHT22;7016;48.172;8.058;2023-07-31T13:21:30;23.00;99.90
13892;DHT22;7016;48.172;8.058;2023-07-31T13:23:55;22.90;99.90
13892;DHT22;7016;48.172;8.058;2023-07-31T13:26:23;23.00;99.90
13892;DHT22;7016;48.172;8.058;2023-07-31T13:28:49;23.10;99.90
13892;DHT22;7016;48.172;8.058;2023-07-31T13:31:14;23.10;99.90
13892;DHT22;7016;48.172;8.058;2023-07-31T13:33:41;23.00;99.90
13892;DHT22;7016;48.172;8.058;2023-07-31T13:36:07;22.80;99.90
13892;DHT22;7016;48.172;8.058;2023-07-31T13:38:32;22.80;99.90
13892;DHT22;7016;48.172;8.058;2023-07-31T13:40:58;22.70;99.90
13892;DHT22;7016;48.172;8.058;2023-07-31T13:43:24;22.80;99.90
13892;DHT22;7016;48.172;8.058;2023-07-31T13:45:49;22.90;99.90
13892;DHT22;7016;48.172;8.058;2023-07-31T13:48:15;23.00;99.90
13892;DHT22;7016;48.172;8.058;2023-07-31T13:50:41;23.00;99.90
13892;DHT22;7016;48.172;8.058;2023-07-31T13:53:06;23.00;99.90
13892;DHT22;7016;48.172;8.058;2023-07-31T13:55:32;23.00;99.90
13892;DHT22;7016;48.172;8.058;2023-07-31T13:57:58;22.80;99.90
13892;DHT22;7016;48.172;8.058;2023-07-31T14:00:23;22.80;99.90
13892;DHT22;7016;48.172;8.058;2023-07-31T14:02:49;22.90;99.90
13892;DHT22;7016;48.172;8.058;2023-07-31T14:05:15;22.90;99.90
13892;DHT22;7016;48.172;8.058;2023-07-31T14:07:40;22.90;99.90
13892;DHT22;7016;48.172;8.058;2023-07-31T14:10:06;22.90;99.90
13892;DHT22;7016;48.172;8.058;2023-07-31T14:12:32;23.00;99.90
13892;DHT22;7016;48.172;8.058;2023-07-31T14:14:58;23.00;99.90
13892;DHT22;7016;48.172;8.058;2023-07-31T14:17:27;23.00;99.90
13892;DHT22;7016;48.172;8.058;2023-07-31T14:19:52;23.10;99.90
13892;DHT22;7016;48.172;8.058;2023-07-31T14:22:28;23.10;99.90
13892;DHT22;7016;48.172;8.058;2023-07-31T14:24:54;23.20;99.90
13892;DHT22;7016;48.172;8.058;2023-07-31T14:27:20;23.20;99.90
13892;DHT22;7016;48.172;8.058;2023-07-31T14:29:46;23.20;99.90
13892;DHT22;7016;48.172;8.058;2023-07-31T14:32:11;23.20;99.90
13892;DHT22;7016;48.172;8.058;2023-07-31T14:34:37;23.10;99.90
13892;DHT22;7016;48.172;8.058;2023-07-31T14:37:03;23.00;99.90
13892;DHT22;7016;48.172;8.058;2023-07-31T14:39:29;23.10;99.90
13892;DHT22;7016;48.172;8.058;2023-07-31T14:41:55;23.00;99.90
13892;DHT22;7016;48.172;8.058;2023-07-31T14:44:21;23.10;99.90
13892;DHT22;7016;48.172;8.058;2023-07-31T14:46:46;23.20;99.90
13892;DHT22;7016;48.172;8.058;2023-07-31T14:49:12;23.30;99.90
13892;DHT22;7016;48.172;8.058;2023-07-31T14:51:38;23.20;99.90
13892;DHT22;7016;48.172;8.058;2023-07-31T14:54:04;23.20;99.90
13892;DHT22;7016;48.172;8.058;2023-07-31T14:56:29;23.20;99.90
13892;DHT22;7016;48.172;8.058;2023-07-31T14:58:55;23.20;99.90
13892;DHT22;7016;48.172;8.058;2023-07-31T15:01:20;23.20;99.90
13892;DHT22;7016;48.172;8.058;2023-07-31T15:03:46;23.40;99.90
13892;DHT22;7016;48.172;8.058;2023-07-31T15:06:12;23.40;99.90
13892;DHT22;7016;48.172;8.058;2023-07-31T15:08:38;23.30;99.90
13892;DHT22;7016;48.172;8.058;2023-07-31T15:11:05;23.40;99.90
13892;DHT22;7016;48.172;8.058;2023-07-31T15:13:30;23.40;99.90
13892;DHT22;7016;48.172;8.058;2023-07-31T15:15:56;23.40;99.90
13892;DHT22;7016;48.172;8.058;2023-07-31T15:18:23;23.40;99.90
13892;DHT22;7016;48.172;8.058;2023-07-31T15:20:49;23.50;99.90
13892;DHT22;7016;48.172;8.058;2023-07-31T15:23:14;23.50;99.90
13892;DHT22;7016;48.172;8.058;2023-07-31T15:25:40;23.60;99.90
13892;DHT22;7016;48.172;8.058;2023-07-31T15:28:06;23.70;99.90
13892;DHT22;7016;48.172;8.058;2023-07-31T15:30:32;23.60;99.40
13892;DHT22;7016;48.172;8.058;2023-07-31T15:32:59;23.60;99.70
13892;DHT22;7016;48.172;8.058;2023-07-31T15:35:24;23.60;99.90
13892;DHT22;7016;48.172;8.058;2023-07-31T15:37:50;23.60;99.90
13892;DHT22;7016;48.172;8.058;2023-07-31T15:40:16;23.50;99.50
13892;DHT22;7016;48.172;8.058;2023-07-31T15:42:41;23.40;99.10
13892;DHT22;7016;48.172;8.058;2023-07-31T15:45:10;23.50;99.90
13892;DHT22;7016;48.172;8.058;2023-07-31T15:47:36;23.60;99.90
13892;DHT22;7016;48.172;8.058;2023-07-31T15:50:02;23.60;99.80
13892;DHT22;7016;48.172;8.058;2023-07-31T15:52:40;23.50;99.50
13892;DHT22;7016;48.172;8.058;2023-07-31T15:55:06;23.50;99.90
13892;DHT22;7016;48.172;8.058;2023-07-31T15:57:31;23.50;99.70
13892;DHT22;7016;48.172;8.058;2023-07-31T15:59:57;23.50;99.90
13892;DHT22;7016;48.172;8.058;2023-07-31T16:02:23;23.50;99.90
13892;DHT22;7016;48.172;8.058;2023-07-31T16:04:48;23.50;99.70
13892;DHT22;7016;48.172;8.058;2023-07-31T16:07:14;23.50;99.90
13892;DHT22;7016;48.172;8.058;2023-07-31T16:09:40;23.50;99.90
13892;DHT22;7016;48.172;8.058;2023-07-31T16:12:06;23.40;99.70